Time;durP1;ratioP1;P1;durP2;ratioP2;P2;SDS_P1;SDS_P2;PMS_P1;PMS_P2;Temp;Humidity;BMP_temperature;BMP_pressure;BME280_temperature;BME280_humidity;BME280_pressure;Samples;Min_cycle;Max_cycle;Signal;HPM_P1;HPM_P2
2021/06/29 00:01:00;;;;;;;10.27;7.95;;;20.20;99.90;;;18.99;90.18;100845.22;3520109;39;102206;-39
2021/06/29 00:03:27;;;;;;;8.70;7.50;;;20.20;99.90;;;19.00;90.17;100846.06;3520796;40;102544;-41
2021/06/29 00:05:55;;;;;;;9.55;7.30;;;20.20;99.90;;;18.99;90.22;100858.22;3520358;39;103357;-43
2021/06/29 00:08:22;;;;;;;9.55;7.63;;;20.20;99.90;;;18.98;90.05;100857.38;3520078;39;102562;-42
2021/06/29 00:10:50;;;;;;;;;;;20.20;99.90;;;18.96;89.91;100860.41;3521046;39;102401;-40
2021/06/29 00:13:21;;;;;;;9.20;7.60;;;20.10;99.90;;;18.95;90.11;100855.13;3519826;40;102721;-39
2021/06/29 00:15:50;;;;;;;10.23;7.60;;;20.10;99.90;;;18.94;90.37;100861.75;3520332;39;102339;-43
2021/06/29 00:18:18;;;;;;;9.70;8.18;;;20.10;99.90;;;18.92;90.58;100850.94;3520442;39;102475;-40
2021/06/29 00:20:45;;;;;;;10.63;8.23;;;20.10;99.90;;;18.94;90.62;100847.94;3520062;39;102452;-41
2021/06/29 00:23:13;;;;;;;10.27;7.53;;;20.10;99.90;;;18.88;90.71;100844.28;3520091;39;103247;-40
2021/06/29 00:25:40;;;;;;;8.75;7.75;;;20.10;99.90;;;18.91;90.44;100842.94;3520231;39;103474;-40
2021/06/29 00:28:08;;;;;;;10.10;8.02;;;20.10;99.90;;;18.90;90.45;100844.03;3520168;39;102477;-41
2021/06/29 00:30:35;;;;;;;8.70;7.80;;;20.10;99.90;;;18.90;90.59;100844.03;3520606;39;103399;-40
2021/06/29 00:33:03;;;;;;;8.85;7.75;;;20.10;99.90;;;18.87;90.95;100831.56;3520456;39;102374;-40
2021/06/29 00:35:31;;;;;;;9.48;7.45;;;20.00;99.90;;;18.89;91.05;100823.03;3519871;39;102778;-40
2021/06/29 00:37:59;;;;;;;11.65;8.65;;;20.00;99.90;;;18.90;91.27;100824.69;3520336;39;102366;-41
2021/06/29 00:40:26;;;;;;;11.15;8.10;;;20.10;99.90;;;18.91;91.52;100826.34;3520004;39;102267;-43
2021/06/29 00:42:54;;;;;;;;;;;20.10;99.90;;;18.93;91.48;100818.63;3520763;39;102280;-40
2021/06/29 00:45:25;;;;;;;9.23;8.23;;;20.10;99.90;;;18.92;91.40;100815.00;3520133;39;102313;-42
2021/06/29 00:47:52;;;;;;;10.45;8.45;;;20.10;99.90;;;18.94;91.58;100818.34;3520093;39;102838;-38
2021/06/29 00:50:20;;;;;;;8.75;7.63;;;20.10;99.90;;;18.96;91.41;100810.63;3520086;40;103301;-39
2021/06/29 00:55:24;;;;;;;8.00;7.15;;;20.10;99.90;;;18.99;91.76;100817.56;3488373;40;104216;-40
2021/06/29 00:57:56;;;;;;;8.15;7.28;;;20.10;99.90;;;18.98;91.77;100832.50;3490064;40;102258;-40
2021/06/29 01:00:24;;;;;;;8.63;7.53;;;20.10;99.90;;;18.98;92.15;100860.13;3490392;40;102320;-40
2021/06/29 01:02:52;;;;;;;9.27;8.07;;;20.10;99.90;;;19.06;91.44;100880.91;3490160;40;102332;-39
2021/06/29 01:05:19;;;;;;;11.45;5.75;;;20.20;99.90;;;19.07;91.33;100883.41;3490601;40;102268;-39
2021/06/29 01:07:47;;;;;;;7.25;4.68;;;20.20;99.90;;;19.02;92.13;100899.16;3489921;40;102335;-39
2021/06/29 01:10:14;;;;;;;;;;;20.20;99.90;;;18.88;92.15;100866.41;3490767;40;102704;-40
2021/06/29 01:12:42;;;;;;;6.15;4.45;;;20.10;99.90;;;18.74;92.74;100874.34;3490708;40;102416;-40
2021/06/29 01:15:10;;;;;;;6.53;4.18;;;20.00;99.90;;;18.63;93.22;100887.25;3490117;40;103243;-40
2021/06/29 01:17:38;;;;;;;6.65;4.40;;;19.90;99.90;;;18.58;93.84;100887.22;3489954;40;102706;-40
2021/06/29 01:20:15;;;;;;;5.00;3.55;;;19.80;99.90;;;18.57;94.42;100887.50;3490094;40;102359;-40
2021/06/29 01:22:42;;;;;;;5.57;3.55;;;19.80;99.90;;;18.54;94.13;100878.63;3490507;40;102605;-41
2021/06/29 01:25:13;;;;;;;;;;;19.70;99.90;;;18.47;93.96;100878.00;3491037;40;103307;-40
2021/06/29 01:32:39;;;;;;;6.30;3.50;;;19.60;99.90;;;18.38;92.30;100863.03;3489815;40;102824;-40
2021/06/29 01:35:09;;;;;;;5.80;3.47;;;19.60;99.90;;;18.30;92.11;100856.06;3490280;40;102435;-40
2021/06/29 01:37:38;;;;;;;4.70;3.10;;;19.50;99.90;;;18.19;92.28;100871.72;3490246;40;102662;-42
2021/06/29 01:40:13;;;;;;;4.82;3.50;;;19.40;99.90;;;18.11;92.52;100858.41;3490031;40;104081;-40
2021/06/29 01:42:41;;;;;;;6.97;3.50;;;19.30;99.90;;;18.03;92.77;100858.88;3489742;40;102337;-42
2021/06/29 01:45:09;;;;;;;8.13;4.05;;;19.30;99.90;;;18.01;93.14;100861.91;3489457;40;102241;-41
2021/06/29 01:50:16;;;;;;;6.28;4.22;;;19.20;99.90;;;17.91;93.64;100854.31;3489981;40;102185;-40
2021/06/29 01:52:44;;;;;;;6.45;3.88;;;19.20;99.90;;;17.88;93.90;100860.38;3490021;40;103381;-40
2021/06/29 01:55:13;;;;;;;6.20;4.55;;;19.20;99.90;;;17.83;94.53;100860.31;3489226;40;102531;-41
2021/06/29 01:57:44;;;;;;;6.15;4.43;;;19.10;99.90;;;17.78;94.70;100852.81;3489541;40;102369;-40
2021/06/29 02:00:14;;;;;;;6.18;3.85;;;19.10;99.90;;;17.68;94.55;100831.47;3490131;40;102319;-41
2021/06/29 02:02:42;;;;;;;5.32;3.83;;;19.00;99.90;;;17.67;94.95;100835.31;3490037;40;102301;-40
2021/06/29 02:05:10;;;;;;;;;;;18.90;99.90;;;17.61;94.94;100839.13;3490156;40;103241;-41
2021/06/29 02:07:37;;;;;;;5.22;3.47;;;18.90;99.90;;;17.56;94.96;100835.47;3489052;40;102968;-41
2021/06/29 02:10:07;;;;;;;6.22;3.63;;;18.80;99.90;;;17.49;94.83;100827.38;3489562;40;103261;-41
2021/06/29 02:12:35;;;;;;;4.32;2.97;;;18.80;99.90;;;17.44;94.89;100822.69;3489326;40;102442;-40
2021/06/29 02:15:05;;;;;;;5.00;3.40;;;18.70;99.90;;;17.39;94.73;100819.88;3490451;40;103391;-42
2021/06/29 02:17:33;;;;;;;4.70;3.10;;;18.70;99.90;;;17.36;94.44;100821.19;3491269;40;102820;-41
2021/06/29 02:20:00;;;;;;;4.50;3.10;;;18.70;99.90;;;17.33;94.36;100818.97;3491023;40;102383;-40
2021/06/29 02:22:28;;;;;;;4.82;2.80;;;18.60;99.90;;;17.28;94.62;100823.56;3490762;40;102411;-40
2021/06/29 02:24:55;;;;;;;3.88;3.03;;;18.60;99.90;;;17.23;94.65;100816.06;3490911;40;103378;-40
2021/06/29 02:27:23;;;;;;;4.45;2.80;;;18.60;99.90;;;17.20;94.96;100813.84;3490727;40;102458;-40
2021/06/29 02:29:51;;;;;;;4.32;3.13;;;18.50;99.90;;;17.15;94.99;100800.00;3491066;40;102162;-41
2021/06/29 02:32:18;;;;;;;4.40;2.80;;;18.40;99.90;;;17.05;94.88;100787.78;3491300;40;102644;-41
2021/06/29 02:34:46;;;;;;;4.88;2.90;;;18.40;99.90;;;17.08;95.19;100791.91;3490699;40;102293;-41
2021/06/29 02:37:13;;;;;;;4.38;3.10;;;18.40;99.90;;;17.06;95.25;100797.69;3490869;40;102400;-41
2021/06/29 02:39:40;;;;;;;4.63;3.10;;;18.40;99.90;;;17.02;95.38;100793.78;3490829;40;104088;-41
2021/06/29 02:42:08;;;;;;;4.60;3.50;;;18.40;99.90;;;17.05;95.27;100803.47;3491095;40;102277;-48
2021/06/29 02:44:36;;;;;;;;;;;18.30;99.90;;;17.01;95.68;100799.56;3491454;40;102580;-41
2021/06/29 02:47:04;;;;;;;5.03;3.05;;;18.30;99.90;;;17.05;95.96;100804.31;3491064;40;102483;-42
2021/06/29 02:49:32;;;;;;;4.03;2.70;;;18.30;99.90;;;17.09;96.26;100808.22;3490515;40;104135;-40
2021/06/29 02:51:59;;;;;;;4.82;3.20;;;18.30;99.90;;;17.10;96.59;100804.38;3490968;40;102418;-40
2021/06/29 02:54:26;;;;;;;4.40;3.30;;;18.40;99.90;;;17.14;96.82;100806.59;3490290;40;102517;-41
2021/06/29 02:56:54;;;;;;;4.32;2.97;;;18.40;99.90;;;17.14;96.66;100817.63;3490969;40;102267;-41
2021/06/29 02:59:21;;;;;;;4.10;3.28;;;18.40;99.90;;;17.18;97.23;100824.28;3490620;40;102979;-42
2021/06/29 03:01:49;;;;;;;4.47;3.00;;;18.40;99.90;;;17.19;97.45;100823.19;3490585;40;102272;-41
2021/06/29 03:04:18;;;;;;;5.10;3.17;;;18.40;99.90;;;17.21;97.43;100821.84;3490410;40;103157;-41
2021/06/29 03:06:45;;;;;;;;;;;18.50;99.90;;;17.28;97.57;100818.06;3492059;40;103150;-41
2021/06/29 03:09:13;;;;;;;5.57;3.33;;;18.50;99.90;;;17.31;97.55;100820.31;3491271;40;103304;-40
2021/06/29 03:11:40;;;;;;;4.03;3.08;;;18.50;99.90;;;17.31;97.41;100812.88;3490579;40;102517;-41
2021/06/29 03:14:08;;;;;;;4.95;3.80;;;18.50;99.90;;;17.29;97.52;100808.69;3490319;40;103579;-41
2021/06/29 03:16:35;;;;;;;5.22;3.72;;;18.50;99.90;;;17.28;97.56;100805.13;3490842;40;102845;-41
2021/06/29 03:19:03;;;;;;;4.80;3.58;;;18.50;99.90;;;17.23;97.58;100792.09;3490297;40;102298;-41
2021/06/29 03:21:30;;;;;;;;;;;18.50;99.90;;;17.21;97.33;100791.53;3491722;40;102213;-41
2021/06/29 03:23:58;;;;;;;5.40;3.75;;;18.50;99.90;;;17.21;97.44;100791.53;3490247;40;102225;-40
2021/06/29 03:26:25;;;;;;;4.95;3.90;;;18.50;99.90;;;17.26;97.11;100799.03;3490808;40;102462;-42
2021/06/29 03:28:53;;;;;;;5.50;3.83;;;18.50;99.90;;;17.25;96.84;100802.91;3490650;40;102483;-41
2021/06/29 03:31:20;;;;;;;5.10;4.00;;;18.50;99.90;;;17.29;97.00;100789.41;3490453;40;103330;-41
2021/06/29 03:33:48;;;;;;;;;;;18.50;99.90;;;17.29;97.12;100798.53;3491194;40;102205;-41
2021/06/29 03:36:15;;;;;;;5.60;3.53;;;18.60;99.90;;;17.24;97.01;100798.47;3491006;40;102187;-41
2021/06/29 03:38:43;;;;;;;;;;;18.50;99.90;;;17.25;97.19;100802.91;3491018;40;102472;-42
2021/06/29 03:41:10;;;;;;;4.18;3.28;;;18.50;99.90;;;17.26;97.34;100804.56;3490845;40;102400;-41
2021/06/29 03:43:38;;;;;;;5.90;4.13;;;18.50;99.90;;;17.33;97.71;100813.44;3490296;40;102497;-39
2021/06/29 03:46:06;;;;;;;;;;;18.50;99.90;;;17.36;97.46;100815.69;3491098;40;102178;-41
2021/06/29 03:48:35;;;;;;;7.53;5.00;;;18.60;99.90;;;17.49;97.41;100828.25;3490894;40;102230;-41
2021/06/29 03:51:03;;;;;;;5.85;4.32;;;18.60;99.90;;;17.48;96.82;100836.75;3490419;40;102351;-41
2021/06/29 03:53:31;;;;;;;6.78;5.32;;;18.70;99.90;;;17.47;97.16;100832.34;3490429;40;103227;-41
2021/06/29 03:55:59;;;;;;;6.07;5.00;;;18.70;99.90;;;17.51;97.21;100839.03;3490535;40;102590;-41
2021/06/29 03:58:26;;;;;;;7.15;5.72;;;18.70;99.90;;;17.53;96.58;100840.41;3490635;40;102979;-41
2021/06/29 04:00:54;;;;;;;8.30;6.40;;;18.70;99.90;;;17.61;95.08;100847.41;3490375;40;102340;-41
2021/06/29 04:03:21;;;;;;;10.20;8.07;;;18.80;99.90;;;17.59;95.19;100834.94;3490735;40;104112;-41
2021/06/29 04:05:49;;;;;;;11.85;8.85;;;18.80;99.90;;;17.62;95.05;100840.78;3490485;40;102397;-41
2021/06/29 04:08:16;;;;;;;13.32;9.93;;;18.80;99.90;;;17.60;94.94;100837.47;3490138;40;104076;-40
2021/06/29 04:10:43;;;;;;;15.50;10.60;;;18.80;99.90;;;17.53;94.22;100825.81;3490145;40;103490;-41
2021/06/29 04:13:11;;;;;;;12.10;9.85;;;18.80;99.90;;;17.54;94.74;100827.47;3490271;40;102248;-42
2021/06/29 04:15:38;;;;;;;12.82;9.68;;;18.80;99.90;;;17.52;95.02;100824.16;3490437;40;102446;-42
2021/06/29 04:18:10;;;;;;;12.48;9.50;;;18.70;99.90;;;17.58;95.55;100825.00;3490682;40;104111;-42
2021/06/29 04:20:37;;;;;;;12.90;9.75;;;18.80;99.90;;;17.58;95.39;100825.00;3490414;40;102675;-42
2021/06/29 04:23:05;;;;;;;13.32;10.25;;;18.70;99.90;;;17.61;95.51;100828.09;3490546;40;103201;-41
2021/06/29 04:25:32;;;;;;;14.38;10.45;;;18.80;99.90;;;17.66;96.09;100836.41;3488690;40;102755;-41
2021/06/29 04:28:00;;;;;;;12.98;10.40;;;18.80;99.90;;;17.69;95.87;100832.31;3490330;40;102218;-40
2021/06/29 04:30:28;;;;;;;13.73;10.25;;;18.90;99.90;;;17.71;95.60;100823.75;3490756;40;102565;-41
2021/06/29 04:32:55;;;;;;;;;;;18.90;99.90;;;17.67;95.26;100826.22;3490817;40;102326;-41
2021/06/29 04:35:23;;;;;;;13.70;9.70;;;18.80;99.90;;;17.69;95.33;100824.84;3490098;40;102218;-41
2021/06/29 04:37:51;;;;;;;13.00;10.27;;;18.90;99.90;;;17.74;95.28;100832.38;3490038;40;102210;-41
2021/06/29 04:40:18;;;;;;;12.90;9.57;;;18.90;99.90;;;17.79;95.39;100824.13;3489783;40;102203;-41
2021/06/29 04:42:46;;;;;;;14.50;10.82;;;18.90;99.90;;;17.83;95.55;100825.28;3489947;40;102356;-41
2021/06/29 04:45:14;;;;;;;17.15;11.35;;;19.00;99.90;;;17.90;95.81;100830.59;3490155;40;102460;-41
2021/06/29 04:47:48;;;;;;;18.30;12.90;;;19.00;99.90;;;17.92;95.58;100831.16;3490132;40;102248;-41
2021/06/29 04:50:17;;;;;;;16.88;12.20;;;19.10;99.90;;;17.99;95.63;100825.41;3490470;40;102614;-41
2021/06/29 04:52:44;;;;;;;20.73;13.73;;;19.10;99.90;;;18.06;95.70;100816.97;3490018;40;102360;-40
2021/06/29 04:55:13;;;;;;;18.20;12.35;;;19.10;99.90;;;18.11;95.77;100820.56;3489762;40;102793;-41
2021/06/29 04:57:42;;;;;;;18.70;13.25;;;19.20;99.90;;;18.14;94.95;100824.75;3490048;40;102657;-41
2021/06/29 05:00:14;;;;;;;22.83;15.25;;;19.20;99.90;;;18.19;94.37;100827.53;3489854;40;102377;-41
2021/06/29 05:02:44;;;;;;;21.52;14.52;;;19.30;99.90;;;18.24;94.28;100826.75;3490314;40;102368;-41
2021/06/29 05:05:12;;;;;;;21.55;14.48;;;19.30;99.90;;;18.25;94.35;100817.38;3489588;40;102427;-41
2021/06/29 05:07:41;;;;;;;19.20;14.02;;;19.40;99.90;;;18.26;93.99;100814.34;3490330;40;103783;-42
2021/06/29 05:10:12;;;;;;;24.40;15.43;;;19.40;99.90;;;18.38;94.29;100808.63;3490927;40;102389;-40
2021/06/29 05:12:40;;;;;;;22.13;15.05;;;19.40;99.90;;;18.51;94.51;100790.75;3490261;40;103687;-41
2021/06/29 05:15:09;;;;;;;21.92;15.10;;;19.60;99.90;;;18.83;94.24;100798.13;3489817;40;102568;-41
2021/06/29 05:17:37;;;;;;;21.70;16.17;;;19.70;99.90;;;19.09;93.47;100789.97;3489869;40;103411;-41
2021/06/29 05:20:06;;;;;;;19.52;13.77;;;20.00;99.90;;;19.32;91.19;100807.19;3489805;40;102539;-41
2021/06/29 05:22:34;;;;;;;16.27;12.63;;;20.20;99.90;;;19.46;88.83;100820.50;3490177;40;102239;-41
2021/06/29 05:25:03;;;;;;;15.30;11.65;;;20.30;99.90;;;19.55;88.59;100824.41;3489921;40;102680;-41
2021/06/29 05:27:31;;;;;;;16.23;11.23;;;20.50;99.90;;;19.49;87.16;100823.53;3489825;40;102306;-41
2021/06/29 05:29:58;;;;;;;;;;;20.50;99.90;;;19.37;86.85;100814.66;3490627;40;103099;-41
2021/06/29 05:32:26;;;;;;;14.52;11.32;;;20.50;99.90;;;19.29;87.59;100818.78;3490101;40;102380;-41
2021/06/29 05:34:53;;;;;;;14.32;11.00;;;20.40;99.90;;;19.38;88.02;100819.94;3490088;40;102449;-48
2021/06/29 05:37:20;;;;;;;14.20;10.35;;;20.50;99.90;;;19.35;88.35;100825.19;3490160;40;102332;-41
2021/06/29 05:39:48;;;;;;;15.20;10.02;;;20.50;99.90;;;19.22;87.09;100830.09;3489641;40;102349;-41
2021/06/29 05:42:15;;;;;;;13.75;10.25;;;20.40;99.90;;;19.16;87.92;100839.47;3489767;40;102334;-41
2021/06/29 05:44:43;;;;;;;13.80;9.63;;;20.30;99.90;;;19.02;87.24;100844.66;3489674;40;102319;-40
2021/06/29 05:47:15;;;;;;;11.13;8.55;;;20.20;99.90;;;19.00;88.41;100838.59;3490198;40;102268;-40
2021/06/29 05:49:43;;;;;;;12.48;8.55;;;20.20;99.90;;;19.07;88.41;100841.94;3490905;40;102588;-41
2021/06/29 05:52:10;;;;;;;8.77;6.70;;;20.20;99.90;;;19.06;87.40;100844.97;3491235;40;102326;-41
2021/06/29 05:54:38;;;;;;;12.18;6.60;;;20.20;99.90;;;19.13;86.94;100839.22;3490118;40;102446;-41
2021/06/29 05:57:05;;;;;;;7.97;6.03;;;20.20;99.90;;;19.12;85.69;100843.91;3490676;40;103238;-42
2021/06/29 05:59:33;;;;;;;8.60;5.95;;;20.20;99.90;;;19.10;86.01;100846.94;3491043;40;102476;-42
2021/06/29 06:02:01;;;;;;;8.95;6.28;;;20.20;99.90;;;19.17;86.44;100840.31;3491403;40;103432;-41
2021/06/29 06:04:28;;;;;;;9.02;5.90;;;20.20;99.90;;;19.17;85.29;100824.56;3490835;40;102345;-42
2021/06/29 06:06:55;;;;;;;7.55;5.13;;;20.20;99.90;;;19.21;85.29;100844.22;3490645;40;102916;-42
2021/06/29 06:09:23;;;;;;;6.70;5.10;;;20.30;99.90;;;19.27;86.09;100840.34;3491081;40;102404;-41
2021/06/29 06:11:50;;;;;;;6.53;4.35;;;20.30;99.90;;;19.34;85.55;100834.59;3490714;40;102248;-41
2021/06/29 06:14:18;;;;;;;6.30;4.78;;;20.40;99.90;;;19.35;84.94;100848.13;3490782;40;102235;-40
2021/06/29 06:16:45;;;;;;;8.93;4.70;;;20.40;99.90;;;19.22;84.81;100860.50;3490876;40;102318;-41
2021/06/29 06:19:13;;;;;;;5.68;4.13;;;20.30;99.90;;;19.19;83.74;100854.72;3491273;40;103554;-41
2021/06/29 06:21:40;;;;;;;5.50;4.22;;;20.30;99.90;;;19.30;86.23;100853.63;3490751;40;103171;-41
2021/06/29 06:24:08;;;;;;;6.68;3.58;;;20.40;99.90;;;19.35;84.98;100841.78;3490769;40;102629;-41
2021/06/29 06:26:36;;;;;;;6.30;4.00;;;20.40;99.90;;;19.33;85.28;100842.03;3491474;40;102248;-41
2021/06/29 06:29:03;;;;;;;;;;;20.40;99.90;;;19.45;82.19;100836.25;3491438;40;102506;-41
2021/06/29 06:31:31;;;;;;;5.97;3.47;;;20.50;99.90;;;19.59;83.26;100836.56;3490727;40;103392;-41
2021/06/29 06:33:58;;;;;;;8.60;4.10;;;20.60;99.90;;;19.80;83.47;100831.09;3490567;40;102233;-41
2021/06/29 06:36:26;;;;;;;4.45;3.45;;;20.70;99.90;;;20.06;83.19;100818.13;3491117;40;102880;-40
2021/06/29 06:38:54;;;;;;;;;;;20.90;99.90;;;20.26;82.35;100819.22;3491528;40;102558;-41
2021/06/29 06:41:21;;;;;;;4.50;2.90;;;21.10;99.90;;;20.38;77.68;100817.00;3491149;40;103257;-41
2021/06/29 06:43:48;;;;;;;5.57;3.50;;;21.20;99.90;;;20.58;77.59;100808.94;3491003;40;102702;-41
2021/06/29 06:46:16;;;;;;;6.15;3.22;;;21.40;99.90;;;20.75;77.00;100809.44;3491091;40;102735;-41
2021/06/29 06:48:43;;;;;;;6.60;3.75;;;21.60;99.90;;;20.79;77.17;100815.25;3490731;40;102485;-43
2021/06/29 06:51:12;;;;;;;4.60;3.10;;;21.60;99.90;;;20.93;76.94;100818.28;3490654;40;103079;-41
2021/06/29 06:53:40;;;;;;;4.72;3.05;;;21.80;99.90;;;20.90;77.10;100819.69;3619865;22;102393;-42
2021/06/29 06:56:14;;;;;;;6.45;3.60;;;21.80;99.90;;;20.83;75.10;100813.63;3499829;40;102584;-42
2021/06/29 06:58:46;;;;;;;5.78;3.30;;;21.80;99.90;;;20.48;74.99;100824.47;3500312;40;102375;-40
2021/06/29 07:01:16;;;;;;;5.53;3.10;;;21.70;99.90;;;20.45;77.23;100824.19;3501281;40;102282;-40
2021/06/29 07:03:44;;;;;;;6.75;3.95;;;21.60;99.90;;;20.41;76.80;100829.44;3500730;40;102521;-40
2021/06/29 07:06:13;;;;;;;5.40;3.95;;;21.60;99.90;;;20.35;77.00;100825.03;3500664;40;102282;-41
2021/06/29 07:08:43;;;;;;;5.50;3.85;;;21.50;99.90;;;20.33;77.41;100838.31;3501106;40;102578;-40
2021/06/29 07:11:10;;;;;;;6.68;4.35;;;21.40;99.90;;;20.37;78.28;100825.56;3500257;40;102344;-41
2021/06/29 07:13:38;;;;;;;;;;;21.40;99.90;;;20.26;76.93;100824.75;3501625;40;102445;-40
2021/06/29 07:16:06;;;;;;;8.68;5.15;;;21.40;99.90;;;20.32;78.57;100825.59;3491967;40;102477;-40
2021/06/29 07:18:34;;;;;;;;;;;21.40;99.90;;;20.44;79.27;100828.91;3501008;40;102322;-39
2021/06/29 07:21:02;;;;;;;9.00;4.90;;;21.40;99.90;;;20.47;79.31;100828.34;3500964;40;102403;-40
2021/06/29 07:23:29;;;;;;;7.78;5.32;;;21.40;99.90;;;20.56;77.48;100831.41;3500404;40;102478;-40
2021/06/29 07:26:02;;;;;;;10.10;5.40;;;21.50;99.90;;;20.65;77.42;100823.31;3500801;40;103030;-40
2021/06/29 07:28:30;;;;;;;6.20;5.25;;;21.60;99.90;;;20.72;76.76;100834.97;3500778;40;102478;-40
2021/06/29 07:30:58;;;;;;;7.25;5.55;;;21.60;99.90;;;20.69;76.02;100825.25;3500251;40;103220;-42
2021/06/29 07:33:26;;;;;;;6.90;4.88;;;21.60;99.90;;;20.71;76.91;100827.75;3491753;40;102558;-40
2021/06/29 07:35:55;;;;;;;7.70;5.05;;;21.70;99.90;;;20.65;77.01;100840.78;3500810;40;102194;-40
2021/06/29 07:38:24;;;;;;;8.10;5.47;;;21.60;99.90;;;20.55;77.38;100836.09;3500906;40;102324;-40
2021/06/29 07:40:51;;;;;;;8.05;5.18;;;21.60;99.90;;;20.43;76.55;100838.34;3500415;40;102348;-40
2021/06/29 07:43:20;;;;;;;11.25;5.60;;;21.50;99.90;;;20.43;76.97;100838.34;3501099;40;102450;-40
2021/06/29 07:45:48;;;;;;;9.55;5.07;;;21.50;99.90;;;20.41;76.53;100844.16;3499861;40;103374;-40
2021/06/29 07:48:15;;;;;;;10.82;5.75;;;21.40;99.90;;;20.30;76.47;100839.75;3500274;40;102413;-40
2021/06/29 07:50:43;;;;;;;7.95;5.55;;;21.40;99.90;;;20.24;76.94;100836.13;3500871;40;103334;-40
2021/06/29 07:53:10;;;;;;;7.13;5.15;;;21.30;99.90;;;20.33;78.48;100836.41;3500802;40;102514;-41
2021/06/29 07:55:38;;;;;;;8.68;6.20;;;21.30;99.90;;;20.39;78.45;100842.75;3500103;40;102428;-40
2021/06/29 07:58:05;;;;;;;9.85;6.60;;;21.40;99.90;;;20.38;77.62;100843.84;3499963;40;102646;-40
2021/06/29 08:00:36;;;;;;;8.82;6.38;;;21.40;99.90;;;20.51;77.91;100839.69;3500614;40;104236;-41
2021/06/29 08:03:04;;;;;;;9.10;6.47;;;21.50;99.90;;;20.59;78.00;100838.28;3500581;40;102358;-40
2021/06/29 08:05:32;;;;;;;9.35;7.00;;;21.50;99.90;;;20.75;79.49;100834.41;3500484;40;102653;-39
2021/06/29 08:08:00;;;;;;;10.35;7.55;;;21.60;99.90;;;20.69;78.95;100832.75;3500652;40;103241;-40
2021/06/29 08:10:28;;;;;;;9.65;7.22;;;21.60;99.90;;;20.70;77.69;100835.22;3499940;40;103317;-41
2021/06/29 08:12:56;;;;;;;8.77;7.10;;;21.60;99.90;;;20.74;75.46;100838.28;3500065;40;102319;-41
2021/06/29 08:15:23;;;;;;;;;;;21.70;99.90;;;20.78;75.67;100833.81;3501442;40;104340;-40
2021/06/29 08:17:50;;;;;;;9.95;7.28;;;21.70;99.90;;;20.75;76.19;100837.16;3500701;40;102236;-40
2021/06/29 08:20:18;;;;;;;10.15;7.15;;;21.70;99.90;;;20.86;77.51;100843.53;3500267;40;103179;-40
2021/06/29 08:22:53;;;;;;;10.43;7.32;;;21.80;99.90;;;20.97;77.79;100844.34;3500052;40;102648;-40
2021/06/29 08:25:21;;;;;;;9.88;7.68;;;21.80;99.90;;;20.95;76.17;100838.22;3499907;40;102754;-40
2021/06/29 08:27:50;;;;;;;11.77;8.00;;;21.90;99.90;;;20.94;75.59;100850.44;3500274;40;102415;-40
2021/06/29 08:30:18;;;;;;;12.65;9.50;;;21.90;99.90;;;20.98;75.30;100857.09;3500024;40;102778;-40
2021/06/29 08:32:46;;;;;;;12.43;9.40;;;22.00;99.90;;;20.93;74.37;100857.09;3500405;40;102421;-40
2021/06/29 08:35:14;;;;;;;15.85;10.48;;;21.90;99.90;;;20.96;74.88;100851.00;3499806;40;102202;-39
2021/06/29 08:37:43;;;;;;;13.70;10.73;;;22.00;99.90;;;20.95;74.43;100844.63;3500366;40;102434;-40
2021/06/29 08:40:13;;;;;;;15.35;10.02;;;22.00;99.90;;;21.15;74.12;100842.03;3500177;40;102309;-41
2021/06/29 08:42:44;;;;;;;14.13;9.68;;;22.00;99.90;;;21.34;73.80;100837.53;3500204;40;102194;-40
2021/06/29 08:45:13;;;;;;;;;;;22.20;99.90;;;21.56;73.83;100842.66;3500795;40;104139;-40
2021/06/29 08:47:42;;;;;;;17.70;11.52;;;22.40;99.90;;;21.70;72.41;100830.97;3500707;40;102808;-42
2021/06/29 08:50:15;;;;;;;13.55;10.85;;;22.50;99.90;;;22.03;73.04;100830.47;3500188;40;102760;-40
2021/06/29 08:52:43;;;;;;;16.40;11.38;;;22.70;99.90;;;22.26;71.54;100831.66;3500626;40;102543;-40
2021/06/29 08:55:13;;;;;;;15.65;11.52;;;22.90;99.90;;;22.38;69.48;100828.50;3500129;40;102457;-40
2021/06/29 08:57:40;;;;;;;14.38;10.73;;;23.10;99.90;;;22.24;69.24;100834.72;3499843;40;102448;-39
2021/06/29 09:00:12;;;;;;;16.42;11.50;;;23.10;99.90;;;22.22;70.42;100834.16;3500002;40;102693;-40
2021/06/29 09:02:41;;;;;;;17.40;11.88;;;23.10;99.90;;;22.10;70.54;100836.50;3500371;40;102571;-41
2021/06/29 09:05:27;;;;;;;18.85;12.73;;;23.10;99.90;;;22.00;70.94;100834.63;3500017;40;102290;-40
2021/06/29 09:08:13;;;;;;;20.00;13.60;;;23.00;99.90;;;21.97;72.13;100835.22;3499821;40;102493;-41
2021/06/29 09:11:03;;;;;;;18.17;13.48;;;22.90;99.90;;;22.01;72.99;100843.78;3500069;40;103189;-40
2021/06/29 09:13:31;;;;;;;19.25;13.75;;;22.90;99.90;;;22.13;74.29;100842.28;3500639;40;102438;-40
2021/06/29 09:15:59;;;;;;;19.27;14.40;;;23.00;99.90;;;22.10;72.16;100839.28;3500067;40;103319;-40
2021/06/29 09:18:35;;;;;;;20.38;14.65;;;23.00;99.90;;;22.17;72.12;100842.56;3499934;40;102487;-43
2021/06/29 09:21:11;;;;;;;22.58;16.20;;;23.00;99.90;;;22.15;71.94;100844.78;3499990;40;103459;-40
2021/06/29 09:23:42;;;;;;;18.48;13.73;;;23.00;99.90;;;22.17;72.58;100839.78;3499491;40;102455;-41
2021/06/29 09:26:16;;;;;;;23.83;16.65;;;23.00;99.90;;;22.23;71.08;100841.38;3500419;40;103371;-40
2021/06/29 09:29:00;;;;;;;24.83;17.02;;;23.10;99.90;;;22.20;72.20;100833.63;3499844;40;102389;-40
2021/06/29 09:31:35;;;;;;;22.80;15.90;;;23.10;99.90;;;22.32;71.13;100841.59;3500038;40;104064;-40
2021/06/29 09:34:11;;;;;;;25.73;17.52;;;23.20;99.90;;;22.23;71.86;100838.59;3500012;40;102431;-40
2021/06/29 09:36:42;;;;;;;21.20;15.48;;;23.10;99.90;;;22.32;72.79;100835.22;3500071;40;102355;-40
2021/06/29 09:39:14;;;;;;;24.75;17.38;;;23.10;99.90;;;22.66;72.44;100842.69;3499333;40;102324;-40
2021/06/29 09:41:46;;;;;;;22.05;16.15;;;23.40;99.90;;;22.80;70.68;100840.84;3499760;40;102335;-41
2021/06/29 09:44:20;;;;;;;21.88;15.75;;;23.50;99.90;;;23.02;69.74;100830.34;3499394;40;102414;-40
2021/06/29 09:46:47;;;;;;;22.92;16.63;;;23.70;99.90;;;23.24;68.23;100838.13;3499936;40;103231;-40
2021/06/29 09:49:17;;;;;;;23.73;16.65;;;23.80;99.90;;;23.47;66.69;100830.88;3499828;40;102501;-40
2021/06/29 09:51:51;;;;;;;24.95;16.00;;;24.00;99.90;;;23.61;66.19;100833.75;3499897;40;102210;-40
2021/06/29 09:54:21;;;;;;;23.80;16.52;;;24.30;99.90;;;23.61;65.98;100842.13;3499558;40;103310;-40
2021/06/29 09:56:51;;;;;;;21.60;15.00;;;24.30;99.90;;;23.46;66.31;100834.78;3499081;40;102431;-40
2021/06/29 09:59:25;;;;;;;21.15;14.23;;;24.30;99.90;;;23.65;64.85;100825.63;3499481;40;102421;-40
2021/06/29 10:02:07;;;;;;;20.35;13.82;;;24.40;99.90;;;23.97;64.38;100826.78;3499662;40;102391;-40
2021/06/29 10:04:35;;;;;;;20.48;13.05;;;24.50;99.90;;;24.27;61.30;100825.47;3499633;40;102548;-40
2021/06/29 10:07:19;;;;;;;;;;;;;;;24.61;63.13;100829.06;3500039;40;102433;-42
2021/06/29 10:10:14;;;;;;;16.35;10.93;;;;;;;25.28;60.77;100822.16;3499878;40;102330;-42
2021/06/29 10:12:41;;;;;;;16.75;11.40;;;;;;;25.67;60.22;100819.91;3499589;40;102363;-40
2021/06/29 10:15:10;;;;;;;22.52;13.00;;;;;;;25.84;58.40;100810.03;3499310;40;102546;-41
2021/06/29 10:17:39;;;;;;;18.85;11.48;;;;;;;25.68;57.02;100803.97;3499488;40;102210;-41
2021/06/29 10:20:23;;;;;;;20.08;11.88;;;;;;;25.96;57.33;100810.25;3499137;40;104502;-40
2021/06/29 10:22:52;;;;;;;16.85;11.95;;;;;;;26.22;58.44;100812.44;3499403;40;102412;-41
2021/06/29 10:25:21;;;;;;;15.88;11.70;;;;;;;26.40;57.25;100798.56;3499718;40;102141;-40